createdAt,value
2019-02-25T00:00:49.306Z,48.05
2019-02-25T00:01:49.312Z,47.95
2019-02-25T00:02:49.276Z,48.18
2019-02-25T00:03:49.280Z,48.36
2019-02-25T00:04:49.257Z,48.88
2019-02-25T00:05:49.239Z,49.91
2019-02-25T00:06:49.256Z,49.32
2019-02-25T00:07:49.232Z,50.67
2019-02-25T00:08:49.225Z,50.56
2019-02-25T00:09:49.211Z,50.46
2019-02-25T00:10:49.215Z,50.67
2019-02-25T00:11:49.200Z,50.56
2019-02-25T00:12:49.168Z,50.15
2019-02-25T00:13:49.162Z,49.84
2019-02-25T00:14:49.146Z,53.67
2019-02-25T00:15:49.155Z,52.74
2019-02-25T00:16:49.150Z,51.81
2019-02-25T00:17:49.119Z,52.43
2019-02-25T00:18:49.112Z,53.28
2019-02-25T00:19:49.082Z,53.25
2019-02-25T00:20:49.082Z,52.33
2019-02-25T00:21:49.086Z,50.90
2019-02-25T00:22:49.061Z,51.18
2019-02-25T00:23:49.042Z,48.90
2019-02-25T00:24:49.043Z,47.87
2019-02-25T00:25:49.027Z,50.46
2019-02-25T00:26:49.034Z,49.63
2019-02-25T00:27:49.009Z,50.95
2019-02-25T00:28:49.010Z,49.63
2019-02-25T00:29:48.986Z,50.04
2019-02-25T00:30:48.971Z,49.09
2019-02-25T00:31:48.978Z,48.18
2019-02-25T00:32:48.941Z,51.18
2019-02-25T00:33:48.935Z,48.90
2019-02-25T00:34:48.923Z,50.56
2019-02-25T00:35:48.926Z,48.88
2019-02-25T00:36:48.928Z,49.52
2019-02-25T00:37:48.894Z,49.73
2019-02-25T00:38:48.888Z,50.87
2019-02-25T00:39:48.882Z,49.21
2019-02-25T00:40:48.853Z,50.04
2019-02-25T00:41:48.865Z,49.86
2019-02-25T00:42:48.839Z,49.55
2019-02-25T00:43:48.819Z,50.38
2019-02-25T00:44:48.812Z,51.10
2019-02-25T00:45:48.801Z,51.10
2019-02-25T00:46:48.804Z,49.55
2019-02-25T00:47:48.790Z,50.79
2019-02-25T00:48:48.781Z,50.69
2019-02-25T00:49:48.758Z,51.10
2019-02-25T00:50:48.743Z,50.09
2019-02-25T00:51:48.764Z,51.54
2019-02-25T00:52:48.740Z,50.92
2019-02-25T00:53:48.725Z,50.82
2019-02-25T00:54:48.694Z,51.03
2019-02-25T00:55:48.688Z,51.44
2019-02-25T00:56:48.703Z,52.37
2019-02-25T00:57:48.680Z,52.69
2019-02-25T00:58:48.662Z,53.30
2019-02-25T00:59:48.661Z,53.96
2019-02-25T01:00:48.625Z,54.79
2019-02-25T01:01:48.646Z,54.58
2019-02-25T01:02:48.609Z,54.16
2019-02-25T01:03:48.605Z,54.89
2019-02-25T01:04:48.600Z,54.27
2019-02-25T01:05:48.585Z,54.16
2019-02-25T01:06:48.588Z,55.10
2019-02-25T01:07:48.551Z,55.20
2019-02-25T01:08:48.555Z,55.41
2019-02-25T01:09:48.541Z,54.79
2019-02-25T01:10:48.535Z,53.96
2019-02-25T01:11:48.538Z,52.40
2019-02-25T01:12:48.511Z,53.96
2019-02-25T01:13:48.498Z,54.27
2019-02-25T01:14:48.480Z,52.71
2019-02-25T01:15:48.467Z,52.92
2019-02-25T01:16:48.476Z,52.81
2019-02-25T01:17:48.451Z,52.61
2019-02-25T01:18:48.434Z,52.83
2019-02-25T01:19:48.436Z,53.15
2019-02-25T01:20:48.419Z,53.25
2019-02-25T01:21:48.433Z,52.09
2019-02-25T01:22:48.424Z,52.62
2019-02-25T01:23:49.040Z,53.33
2019-02-25T01:24:48.372Z,53.85
2019-02-25T01:25:48.390Z,53.02
2019-02-25T01:26:48.387Z,51.05
2019-02-25T01:27:48.354Z,50.22
2019-02-25T01:28:48.360Z,49.99
2019-02-25T01:29:48.364Z,50.82
2019-02-25T01:30:48.434Z,50.84
2019-02-25T01:31:48.381Z,51.13
2019-02-25T01:32:48.431Z,53.10
2019-02-25T01:33:48.340Z,52.06
2019-02-25T01:34:48.312Z,51.13
2019-02-25T01:35:48.303Z,49.57
2019-02-25T01:36:48.316Z,51.23
2019-02-25T01:37:48.237Z,52.06
2019-02-25T01:38:48.211Z,50.92
2019-02-25T01:39:48.214Z,52.89
2019-02-25T01:40:48.192Z,52.89
2019-02-25T01:41:48.194Z,54.13
2019-02-25T01:42:48.174Z,52.89
2019-02-25T01:43:48.171Z,53.61
2019-02-25T01:44:48.154Z,54.37
2019-02-25T01:45:48.153Z,54.37
2019-02-25T01:46:48.160Z,54.16
2019-02-25T01:47:48.115Z,54.89
2019-02-25T01:48:48.106Z,55.41
2019-02-25T01:49:48.101Z,55.30
2019-02-25T01:50:48.084Z,54.79
2019-02-25T01:51:48.072Z,54.81
2019-02-25T01:52:48.088Z,55.12
2019-02-25T01:53:48.053Z,55.22
2019-02-25T01:54:48.042Z,55.33
2019-02-25T01:55:48.027Z,55.22
2019-02-25T01:56:48.014Z,55.54
2019-02-25T01:57:48.025Z,54.91
2019-02-25T01:58:48.023Z,55.20
2019-02-25T01:59:47.989Z,56.57
2019-02-25T02:00:47.979Z,56.88
2019-02-25T02:01:47.969Z,55.72
2019-02-25T02:02:47.955Z,55.10
2019-02-25T02:03:47.964Z,55.72
2019-02-25T02:04:47.927Z,55.20
2019-02-25T02:05:47.925Z,55.30
2019-02-25T02:06:47.903Z,55.41
2019-02-25T02:07:47.905Z,54.79
2019-02-25T02:08:47.895Z,55.10
2019-02-25T02:09:47.895Z,54.58
2019-02-25T02:10:47.863Z,53.02
2019-02-25T02:11:47.862Z,54.37
2019-02-25T02:12:47.845Z,55.82
2019-02-25T02:13:47.869Z,54.06
2019-02-25T02:14:47.821Z,52.61
2019-02-25T02:15:47.804Z,51.96
2019-02-25T02:16:47.806Z,51.15
2019-02-25T02:17:47.787Z,50.71
2019-02-25T02:18:47.809Z,50.61
2019-02-25T02:19:47.757Z,50.79
2019-02-25T02:20:47.749Z,49.99
2019-02-25T02:21:47.735Z,51.00
2019-02-25T02:22:47.733Z,50.07
2019-02-25T02:23:47.753Z,49.76
2019-02-25T02:24:47.701Z,49.94
2019-02-25T02:25:47.696Z,50.25
2019-02-25T02:26:47.683Z,50.98
2019-02-25T02:27:47.681Z,50.46
2019-02-25T02:28:47.668Z,50.87
2019-02-25T02:29:47.668Z,50.46
2019-02-25T02:30:47.634Z,50.48
2019-02-25T02:31:47.637Z,50.87
2019-02-25T02:32:47.632Z,51.08
2019-02-25T02:33:47.608Z,50.25
2019-02-25T02:34:47.625Z,50.77
2019-02-25T02:35:47.594Z,50.56
2019-02-25T02:36:47.572Z,50.04
2019-02-25T02:37:47.580Z,49.84
2019-02-25T02:38:47.560Z,48.60
2019-02-25T02:39:47.568Z,49.21
2019-02-25T02:40:47.532Z,49.21
2019-02-25T02:41:47.530Z,48.88
2019-02-25T02:42:47.512Z,49.11
2019-02-25T02:43:47.504Z,49.73
2019-02-25T02:44:47.521Z,49.42
2019-02-25T02:45:47.472Z,48.16
2019-02-25T02:46:47.458Z,48.16
2019-02-25T02:47:47.460Z,48.57
2019-02-25T02:48:47.458Z,48.36
2019-02-25T02:49:47.437Z,48.57
2019-02-25T02:50:47.449Z,48.16
2019-02-25T02:51:47.412Z,47.95
2019-02-25T02:52:47.397Z,48.16
2019-02-25T02:53:47.387Z,47.74
2019-02-25T02:54:47.371Z,48.16
2019-02-25T02:55:47.380Z,47.85
2019-02-25T02:56:47.356Z,47.95
2019-02-25T02:57:47.337Z,47.92
2019-02-25T02:58:47.334Z,46.79
2019-02-25T02:59:47.315Z,47.31
2019-02-25T03:00:47.347Z,47.10
2019-02-25T03:01:47.297Z,47.10
2019-02-25T03:02:47.286Z,47.62
2019-02-25T03:03:47.285Z,47.31
2019-02-25T03:04:47.262Z,47.20
2019-02-25T03:05:47.241Z,48.24
2019-02-25T03:06:47.252Z,48.13
2019-02-25T03:07:47.216Z,48.44
2019-02-25T03:08:47.219Z,48.44
2019-02-25T03:09:47.198Z,48.13
2019-02-25T03:10:47.194Z,47.82
2019-02-25T03:11:47.199Z,47.92
2019-02-25T03:12:47.169Z,47.92
2019-02-25T03:13:47.189Z,49.38
2019-02-25T03:14:47.152Z,48.16
2019-02-25T03:15:47.159Z,48.16
2019-02-25T03:16:47.147Z,48.05
2019-02-25T03:17:47.128Z,48.16
2019-02-25T03:18:47.106Z,50.23
2019-02-25T03:19:47.099Z,49.51
2019-02-25T03:20:47.083Z,48.68
2019-02-25T03:21:47.082Z,48.90
2019-02-25T03:22:47.059Z,49.51
2019-02-25T03:23:47.052Z,49.11
2019-02-25T03:24:47.035Z,49.91
2019-02-25T03:25:47.029Z,49.19
2019-02-25T03:26:47.021Z,49.11
2019-02-25T03:27:47.014Z,49.11
2019-02-25T03:28:46.991Z,49.52
2019-02-25T03:29:46.982Z,49.52
2019-02-25T03:30:46.977Z,49.73
2019-02-25T03:31:47.007Z,50.15
2019-02-25T03:32:46.956Z,50.56
2019-02-25T03:33:46.943Z,50.59
2019-02-25T03:34:46.930Z,49.84
2019-02-25T03:35:46.917Z,50.27
2019-02-25T03:36:46.912Z,49.86
2019-02-25T03:37:46.904Z,50.17
2019-02-25T03:38:46.879Z,50.38
2019-02-25T03:39:46.862Z,50.90
2019-02-25T03:40:46.900Z,51.42
2019-02-25T03:41:46.845Z,50.40
2019-02-25T03:42:46.850Z,51.13
2019-02-25T03:43:46.824Z,50.92
2019-02-25T03:44:46.823Z,51.03
2019-02-25T03:45:46.815Z,51.13
2019-02-25T03:46:46.799Z,51.44
2019-02-25T03:47:46.799Z,51.44
2019-02-25T03:48:46.790Z,51.44
2019-02-25T03:49:46.758Z,50.92
2019-02-25T03:50:46.749Z,52.06
2019-02-25T03:51:46.745Z,51.54
2019-02-25T03:52:46.758Z,51.65
2019-02-25T03:53:46.730Z,51.34
2019-02-25T03:54:46.695Z,50.92
2019-02-25T03:55:46.688Z,51.03
2019-02-25T03:56:46.687Z,50.90
2019-02-25T03:57:46.717Z,51.13
2019-02-25T03:58:46.650Z,51.00
2019-02-25T03:59:46.644Z,51.03
2019-02-25T04:00:46.642Z,51.31
2019-02-25T04:01:46.620Z,51.34
2019-02-25T04:02:46.644Z,52.04
2019-02-25T04:03:46.610Z,51.21
2019-02-25T04:04:46.600Z,51.13
2019-02-25T04:05:46.572Z,51.10
2019-02-25T04:06:46.564Z,52.27
2019-02-25T04:07:46.582Z,51.42
2019-02-25T04:08:46.554Z,51.44
2019-02-25T04:09:46.542Z,51.44
2019-02-25T04:10:46.550Z,52.04
2019-02-25T04:11:46.522Z,51.23
2019-02-25T04:12:46.532Z,51.44
2019-02-25T04:13:46.495Z,51.73
2019-02-25T04:14:46.482Z,51.73
2019-02-25T04:15:46.480Z,52.25
2019-02-25T04:16:46.455Z,51.73
2019-02-25T04:17:46.468Z,51.73
2019-02-25T04:18:46.478Z,51.21
2019-02-25T04:19:46.464Z,51.21
2019-02-25T04:20:46.420Z,51.10
2019-02-25T04:21:46.425Z,51.31
2019-02-25T04:22:46.392Z,51.00
2019-02-25T04:23:46.377Z,51.10
2019-02-25T04:24:46.371Z,51.00
2019-02-25T04:25:46.347Z,51.21
2019-02-25T04:26:46.350Z,51.10
2019-02-25T04:27:46.360Z,51.21
2019-02-25T04:28:46.317Z,51.62
2019-02-25T04:29:46.308Z,51.21
2019-02-25T04:30:46.304Z,50.90
2019-02-25T04:31:46.288Z,51.10
2019-02-25T04:32:46.298Z,51.52
2019-02-25T04:33:46.262Z,51.34
2019-02-25T04:34:46.258Z,51.65
2019-02-25T04:35:46.248Z,51.21
2019-02-25T04:36:46.224Z,51.31
2019-02-25T04:37:46.247Z,51.23
2019-02-25T04:38:46.207Z,51.83
2019-02-25T04:39:46.206Z,51.83
2019-02-25T04:40:46.204Z,51.65
2019-02-25T04:41:46.185Z,51.73
2019-02-25T04:42:46.185Z,52.06
2019-02-25T04:43:46.167Z,51.42
2019-02-25T04:44:46.153Z,51.54
2019-02-25T04:45:46.131Z,52.06
2019-02-25T04:46:46.132Z,52.27
2019-02-25T04:47:46.144Z,52.06
2019-02-25T04:48:46.118Z,52.48
2019-02-25T04:49:46.089Z,52.58
2019-02-25T04:50:46.073Z,52.06
2019-02-25T04:51:46.133Z,53.20
2019-02-25T04:52:46.075Z,52.58
2019-02-25T04:53:46.050Z,52.37
2019-02-25T04:54:46.048Z,52.69
2019-02-25T04:55:46.029Z,52.89
2019-02-25T04:56:46.011Z,52.89
2019-02-25T04:57:46.019Z,52.79
2019-02-25T04:58:45.994Z,52.79
2019-02-25T04:59:45.989Z,53.30
2019-02-25T05:00:45.970Z,52.79
2019-02-25T05:01:45.968Z,52.58
2019-02-25T05:02:45.972Z,53.02
2019-02-25T05:03:45.950Z,52.79
2019-02-25T05:04:45.925Z,53.00
2019-02-25T05:05:45.931Z,52.89
2019-02-25T05:06:45.904Z,52.89
2019-02-25T05:07:45.915Z,53.20
2019-02-25T05:08:45.881Z,53.61
2019-02-25T05:09:45.879Z,53.61
2019-02-25T05:10:45.864Z,53.92
2019-02-25T05:11:45.861Z,53.92
2019-02-25T05:12:45.857Z,53.61
2019-02-25T05:13:45.858Z,54.16
2019-02-25T05:14:45.817Z,54.37
2019-02-25T05:15:45.818Z,54.79
2019-02-25T05:16:45.801Z,54.27
2019-02-25T05:17:45.814Z,54.79
2019-02-25T05:18:45.784Z,54.68
2019-02-25T05:19:45.764Z,54.89
2019-02-25T05:20:45.757Z,55.12
2019-02-25T05:21:45.743Z,55.12
2019-02-25T05:22:45.747Z,55.22
2019-02-25T05:23:45.722Z,54.91
2019-02-25T05:24:45.717Z,55.02
2019-02-25T05:25:45.698Z,54.71
2019-02-25T05:26:45.695Z,55.43
2019-02-25T05:27:45.702Z,55.02
2019-02-25T05:28:45.660Z,54.71
2019-02-25T05:29:45.683Z,55.30
2019-02-25T05:30:45.647Z,55.10
2019-02-25T05:31:45.630Z,54.89
2019-02-25T05:32:45.660Z,54.79
2019-02-25T05:33:45.616Z,54.99
2019-02-25T05:34:45.597Z,54.79
2019-02-25T05:35:45.586Z,54.89
2019-02-25T05:36:45.580Z,54.91
2019-02-25T05:37:45.583Z,54.68
2019-02-25T05:38:45.554Z,54.89
2019-02-25T05:39:45.553Z,54.79
2019-02-25T05:40:45.536Z,54.79
2019-02-25T05:41:45.559Z,54.79
2019-02-25T05:42:45.551Z,54.47
2019-02-25T05:43:45.524Z,54.79
2019-02-25T05:44:45.487Z,54.47
2019-02-25T05:45:45.486Z,54.79
2019-02-25T05:46:45.485Z,54.06
2019-02-25T05:47:45.490Z,54.37
2019-02-25T05:48:45.447Z,54.79
2019-02-25T05:49:45.428Z,54.37
2019-02-25T05:50:45.439Z,54.47
2019-02-25T05:51:45.410Z,54.16
2019-02-25T05:52:45.417Z,54.79
2019-02-25T05:53:45.386Z,54.79
2019-02-25T05:54:45.428Z,55.07
2019-02-25T05:55:45.377Z,54.06
2019-02-25T05:56:45.359Z,54.89
2019-02-25T05:57:45.414Z,54.89
2019-02-25T05:58:45.390Z,55.30
2019-02-25T05:59:45.328Z,54.89
2019-02-25T06:00:45.323Z,55.10
2019-02-25T06:01:45.315Z,55.22
2019-02-25T06:02:45.310Z,55.41
2019-02-25T06:03:45.285Z,55.54
2019-02-25T06:04:45.287Z,55.74
2019-02-25T06:05:45.262Z,54.91
2019-02-25T06:06:45.266Z,54.99
2019-02-25T06:07:45.276Z,55.22
2019-02-25T06:08:45.244Z,55.95
2019-02-25T06:09:45.213Z,55.74
2019-02-25T06:10:45.213Z,55.33
2019-02-25T06:11:45.195Z,55.51
2019-02-25T06:12:45.227Z,55.51
2019-02-25T06:13:45.177Z,55.10
2019-02-25T06:14:45.180Z,55.43
2019-02-25T06:15:45.159Z,55.30
2019-02-25T06:16:45.139Z,55.12
2019-02-25T06:17:45.145Z,54.79
2019-02-25T06:18:45.126Z,54.47
2019-02-25T06:19:45.115Z,54.89
2019-02-25T06:20:45.111Z,55.02
2019-02-25T06:21:45.085Z,55.51
2019-02-25T06:22:45.144Z,55.54
2019-02-25T06:23:45.071Z,55.22
2019-02-25T06:24:45.056Z,55.22
2019-02-25T06:25:45.037Z,55.22
2019-02-25T06:26:45.038Z,55.12
2019-02-25T06:27:45.042Z,55.33
2019-02-25T06:28:45.032Z,55.22
2019-02-25T06:29:45.001Z,55.22
2019-02-25T06:30:45.005Z,55.22
2019-02-25T06:31:45.003Z,55.33
2019-02-25T06:32:44.986Z,55.22
2019-02-25T06:33:44.967Z,55.22
2019-02-25T06:34:44.946Z,55.33
2019-02-25T06:35:44.937Z,55.33
2019-02-25T06:36:44.913Z,55.33
2019-02-25T06:37:44.983Z,61.45
2019-02-25T06:38:44.903Z,60.31
2019-02-25T06:39:44.904Z,56.68
2019-02-25T06:40:44.885Z,56.65
2019-02-25T06:41:44.888Z,55.93
2019-02-25T06:42:44.865Z,55.10
2019-02-25T06:43:44.862Z,55.22
2019-02-25T06:44:44.842Z,55.30
2019-02-25T06:45:44.829Z,55.62
2019-02-25T06:46:44.825Z,55.02
2019-02-25T06:47:44.818Z,55.12
2019-02-25T06:48:44.909Z,55.02
2019-02-25T06:49:44.777Z,55.02
2019-02-25T06:50:44.784Z,55.85
2019-02-25T06:51:44.760Z,55.56
2019-02-25T06:52:44.760Z,56.18
2019-02-25T06:53:44.760Z,56.49
2019-02-25T06:54:44.720Z,56.18
2019-02-25T06:55:44.713Z,56.39
2019-02-25T06:56:44.748Z,57.04
2019-02-25T06:57:44.707Z,56.73
2019-02-25T06:58:44.708Z,56.62
2019-02-25T06:59:44.675Z,56.60
2019-02-25T07:00:44.653Z,57.12
2019-02-25T07:01:44.648Z,56.81
2019-02-25T07:02:44.641Z,56.81
2019-02-25T07:03:44.647Z,57.01
2019-02-25T07:04:44.608Z,56.39
2019-02-25T07:05:44.594Z,56.73
2019-02-25T07:06:44.592Z,56.73
2019-02-25T07:07:44.612Z,57.53
2019-02-25T07:08:44.615Z,56.39
2019-02-25T07:09:44.577Z,56.70
2019-02-25T07:10:44.545Z,57.43
2019-02-25T07:11:44.568Z,57.12
2019-02-25T07:12:44.522Z,56.91
2019-02-25T07:13:44.536Z,57.22
2019-02-25T07:14:44.511Z,57.64
2019-02-25T07:15:44.498Z,57.32
2019-02-25T07:16:44.485Z,57.95
2019-02-25T07:17:44.475Z,57.64
2019-02-25T07:18:44.474Z,58.05
2019-02-25T07:19:44.463Z,57.53
2019-02-25T07:20:44.451Z,57.61
2019-02-25T07:21:44.446Z,57.95
2019-02-25T07:22:44.411Z,57.53
2019-02-25T07:23:44.425Z,56.81
2019-02-25T07:24:52.658Z,56.68
2019-02-25T07:25:45.387Z,57.32
2019-02-25T07:26:44.368Z,57.30
2019-02-25T07:27:44.365Z,56.47
2019-02-25T07:28:44.420Z,57.30
2019-02-25T07:29:44.333Z,56.99
2019-02-25T07:30:44.330Z,56.88
2019-02-25T07:31:44.322Z,57.09
2019-02-25T07:32:44.323Z,57.07
2019-02-25T07:33:44.340Z,56.88
2019-02-25T07:34:44.279Z,56.24
2019-02-25T07:35:44.281Z,56.47
2019-02-25T07:36:44.270Z,56.88
2019-02-25T07:37:44.258Z,56.37
2019-02-25T07:38:44.287Z,56.45
2019-02-25T07:39:44.241Z,56.55
2019-02-25T07:40:44.213Z,56.13
2019-02-25T07:41:44.203Z,56.65
2019-02-25T07:42:44.193Z,56.96
2019-02-25T07:43:44.197Z,56.45
2019-02-25T07:44:44.197Z,56.55
2019-02-25T07:45:44.160Z,56.45
2019-02-25T07:46:44.154Z,56.34
2019-02-25T07:47:44.147Z,56.24
2019-02-25T07:48:44.135Z,56.10
2019-02-25T07:49:44.147Z,55.62
2019-02-25T07:50:47.089Z,55.69
2019-02-25T07:51:44.094Z,55.69
2019-02-25T07:52:44.082Z,54.65
2019-02-25T07:53:44.087Z,55.58
2019-02-25T07:54:44.108Z,55.58
2019-02-25T07:55:44.053Z,55.17
2019-02-25T07:56:44.051Z,55.27
2019-02-25T07:57:44.034Z,55.58
2019-02-25T07:58:44.027Z,55.27
2019-02-25T07:59:44.049Z,55.27
2019-02-25T08:00:43.996Z,55.15
2019-02-25T08:01:43.995Z,55.25
2019-02-25T08:02:43.982Z,55.25
2019-02-25T08:03:43.961Z,55.25
2019-02-25T08:04:43.971Z,55.25
2019-02-25T08:05:43.947Z,55.04
2019-02-25T08:06:43.924Z,54.73
2019-02-25T08:07:43.922Z,54.83
2019-02-25T08:08:43.907Z,54.60
2019-02-25T08:09:43.914Z,54.19
2019-02-25T08:10:43.889Z,54.39
2019-02-25T08:11:43.881Z,53.98
2019-02-25T08:12:43.871Z,54.60
2019-02-25T08:13:43.862Z,54.29
2019-02-25T08:14:43.868Z,54.08
2019-02-25T08:15:43.830Z,54.08
2019-02-25T08:16:43.830Z,54.19
2019-02-25T08:17:43.809Z,53.54
2019-02-25T08:18:43.801Z,53.64
2019-02-25T08:19:43.808Z,53.54
2019-02-25T08:20:43.826Z,53.54
2019-02-25T08:21:43.770Z,54.47
2019-02-25T08:22:43.759Z,53.75
2019-02-25T08:23:43.740Z,53.72
2019-02-25T08:24:43.760Z,53.62
2019-02-25T08:25:43.709Z,53.62
2019-02-25T08:26:43.709Z,53.62
2019-02-25T08:27:43.714Z,54.35
2019-02-25T08:28:43.681Z,53.39
2019-02-25T08:29:43.702Z,54.22
2019-02-25T08:30:43.665Z,53.80
2019-02-25T08:31:43.674Z,53.39
2019-02-25T08:32:43.647Z,53.80
2019-02-25T08:33:43.635Z,53.49
2019-02-25T08:34:43.619Z,53.18
2019-02-25T08:35:43.625Z,52.44
2019-02-25T08:36:43.599Z,52.56
2019-02-25T08:37:43.576Z,52.75
2019-02-25T08:38:43.581Z,52.75
2019-02-25T08:39:43.578Z,52.75
2019-02-25T08:40:43.610Z,52.54
2019-02-25T08:41:43.551Z,52.54
2019-02-25T08:42:43.532Z,52.85
2019-02-25T08:43:43.518Z,52.23
2019-02-25T08:44:43.504Z,52.54
2019-02-25T08:45:43.536Z,52.23
2019-02-25T08:46:43.493Z,52.64
2019-02-25T08:47:43.481Z,52.12
2019-02-25T08:48:43.459Z,52.31
2019-02-25T08:49:43.445Z,51.89
2019-02-25T08:50:43.465Z,52.31
2019-02-25T08:51:43.434Z,52.10
2019-02-25T08:52:43.425Z,52.00
2019-02-25T08:53:43.428Z,52.00
2019-02-25T08:54:43.410Z,52.10
2019-02-25T08:55:43.415Z,52.00
2019-02-25T08:56:43.390Z,51.25
2019-02-25T08:57:43.361Z,51.79
2019-02-25T08:58:43.358Z,51.48
2019-02-25T08:59:43.339Z,52.08
2019-02-25T09:00:43.362Z,50.84
2019-02-25T09:01:43.319Z,51.15
2019-02-25T09:02:43.323Z,51.02
2019-02-25T09:03:43.293Z,50.94
2019-02-25T09:04:43.334Z,51.15
2019-02-25T09:05:43.297Z,51.02
2019-02-25T09:06:43.279Z,50.92
2019-02-25T09:07:43.247Z,51.84
2019-02-25T09:08:43.229Z,52.26
2019-02-25T09:09:43.237Z,52.05
2019-02-25T09:10:43.234Z,52.15
2019-02-25T09:11:43.209Z,52.23
2019-02-25T09:12:43.196Z,52.36
2019-02-25T09:13:43.194Z,51.95
2019-02-25T09:14:43.182Z,51.31
2019-02-25T09:15:43.207Z,51.51
2019-02-25T09:16:43.212Z,50.89
2019-02-25T09:17:43.150Z,51.62
2019-02-25T09:18:43.133Z,51.62
2019-02-25T09:19:43.118Z,51.79
2019-02-25T09:20:43.143Z,51.59
2019-02-25T09:21:43.094Z,51.70
2019-02-25T09:22:43.111Z,51.39
2019-02-25T09:23:43.087Z,51.79
2019-02-25T09:24:43.053Z,51.90
2019-02-25T09:25:43.056Z,52.00
2019-02-25T09:26:43.058Z,50.95
2019-02-25T09:27:43.045Z,51.05
2019-02-25T09:28:43.020Z,50.64
2019-02-25T09:29:44.803Z,51.05
2019-02-25T09:30:42.994Z,51.05
2019-02-25T09:31:43.000Z,50.84
2019-02-25T09:32:42.978Z,50.74
2019-02-25T09:33:42.976Z,50.95
2019-02-25T09:34:43.068Z,51.36
2019-02-25T09:35:42.944Z,51.36
2019-02-25T09:36:42.964Z,51.57
2019-02-25T09:37:42.922Z,51.78
2019-02-25T09:38:42.920Z,52.08
2019-02-25T09:39:42.912Z,51.65
2019-02-25T09:40:42.892Z,51.34
2019-02-25T09:41:42.891Z,50.92
2019-02-25T09:42:42.866Z,51.23
2019-02-25T09:43:42.859Z,50.82
2019-02-25T09:44:42.860Z,50.92
2019-02-25T09:45:42.834Z,51.34
2019-02-25T09:46:42.837Z,50.92
2019-02-25T09:47:42.810Z,52.14
2019-02-25T09:48:42.801Z,52.34
2019-02-25T09:49:42.790Z,52.66
2019-02-25T09:50:42.778Z,52.45
2019-02-25T09:51:42.776Z,53.17
2019-02-25T09:52:42.759Z,53.58
2019-02-25T09:53:42.742Z,53.76
2019-02-25T09:54:42.723Z,53.48
2019-02-25T09:55:42.726Z,52.96
2019-02-25T09:56:42.726Z,53.45
2019-02-25T09:57:42.697Z,53.35
2019-02-25T09:58:42.697Z,53.25
2019-02-25T09:59:42.693Z,53.86
2019-02-25T10:00:42.671Z,54.17
2019-02-25T10:01:42.673Z,53.66
2019-02-25T10:02:42.651Z,53.25
2019-02-25T10:03:42.638Z,54.05
2019-02-25T10:04:42.625Z,53.22
2019-02-25T10:05:42.606Z,54.05
2019-02-25T10:06:42.605Z,53.94
2019-02-25T10:07:42.585Z,53.84
2019-02-25T10:08:42.573Z,53.84
2019-02-25T10:09:42.571Z,53.63
2019-02-25T10:10:42.553Z,54.05
2019-02-25T10:11:42.582Z,54.35
2019-02-25T10:12:42.533Z,54.46
2019-02-25T10:13:42.520Z,54.13
2019-02-25T10:14:42.510Z,53.71
2019-02-25T10:15:42.500Z,55.07
2019-02-25T10:16:42.513Z,54.94
2019-02-25T10:17:42.477Z,54.64
2019-02-25T10:18:42.465Z,55.57
2019-02-25T10:19:42.458Z,55.66
2019-02-25T10:20:42.473Z,55.98
2019-02-25T10:21:42.445Z,55.66
2019-02-25T10:22:42.418Z,55.87
2019-02-25T10:23:42.411Z,56.36
2019-02-25T10:24:42.401Z,56.77
2019-02-25T10:25:42.396Z,56.26
2019-02-25T10:26:42.465Z,55.95
2019-02-25T10:27:42.373Z,57.08
2019-02-25T10:28:42.351Z,57.39
2019-02-25T10:29:42.350Z,57.39
2019-02-25T10:30:42.338Z,57.06
2019-02-25T10:31:43.816Z,57.16
2019-02-25T10:32:42.307Z,56.95
2019-02-25T10:33:42.318Z,56.64
2019-02-25T10:34:42.283Z,56.44
2019-02-25T10:35:42.276Z,56.23
2019-02-25T10:36:43.871Z,56.23
2019-02-25T10:37:43.783Z,57.06
2019-02-25T10:38:42.243Z,57.16
2019-02-25T10:39:43.267Z,57.26
2019-02-25T10:40:43.343Z,55.93
2019-02-25T10:41:42.232Z,56.31
2019-02-25T10:42:42.209Z,56.10
2019-02-25T10:43:42.180Z,56.51
2019-02-25T10:44:42.173Z,56.41
2019-02-25T10:45:43.390Z,57.03
2019-02-25T10:46:42.870Z,57.23
2019-02-25T10:47:44.124Z,57.34
2019-02-25T10:48:42.143Z,57.21
2019-02-25T10:49:42.116Z,57.00
2019-02-25T10:50:42.109Z,57.21
2019-02-25T10:51:43.929Z,57.10
2019-02-25T10:52:42.942Z,57.00
2019-02-25T10:53:43.100Z,56.59
2019-02-25T10:54:42.067Z,56.79
2019-02-25T10:55:45.002Z,56.90
2019-02-25T10:56:42.056Z,57.21
2019-02-25T10:57:42.033Z,57.10
2019-02-25T10:58:42.022Z,57.08
2019-02-25T10:59:42.005Z,57.28
2019-02-25T11:00:43.678Z,57.90
2019-02-25T11:01:43.357Z,57.70
2019-02-25T11:02:44.440Z,57.49
2019-02-25T11:03:43.098Z,58.00
2019-02-25T11:04:41.963Z,59.23
2019-02-25T11:05:41.957Z,58.00
2019-02-25T11:06:41.944Z,57.90
2019-02-25T11:07:42.098Z,57.59
2019-02-25T11:08:43.473Z,57.46
2019-02-25T11:09:42.459Z,57.05
2019-02-25T11:10:41.908Z,57.05
2019-02-25T11:11:41.896Z,56.85
2019-02-25T11:12:41.862Z,56.23
2019-02-25T11:13:41.855Z,56.64
2019-02-25T11:14:43.397Z,56.74
2019-02-25T11:15:43.609Z,56.85
2019-02-25T11:16:42.324Z,56.64
2019-02-25T11:17:41.802Z,56.74
2019-02-25T11:18:41.823Z,57.05
2019-02-25T11:19:41.791Z,57.15
2019-02-25T11:20:41.768Z,57.03
2019-02-25T11:21:42.159Z,57.46
2019-02-25T11:22:42.403Z,58.56
2019-02-25T11:23:43.453Z,58.67
2019-02-25T11:24:41.727Z,57.95
2019-02-25T11:25:41.735Z,57.95
2019-02-25T11:26:41.718Z,59.69
2019-02-25T11:27:41.748Z,59.15
2019-02-25T11:28:43.686Z,59.87
2019-02-25T11:29:42.534Z,59.97
2019-02-25T11:30:43.146Z,59.56
2019-02-25T11:31:41.645Z,59.15
2019-02-25T11:32:41.656Z,59.15
2019-02-25T11:33:41.631Z,59.12
2019-02-25T11:34:41.634Z,59.33
2019-02-25T11:35:43.274Z,59.97
2019-02-25T11:36:41.607Z,59.94
2019-02-25T11:37:41.601Z,60.46
2019-02-25T11:38:41.596Z,59.43
2019-02-25T11:39:41.559Z,59.09
2019-02-25T11:40:41.607Z,59.33
2019-02-25T11:41:41.541Z,59.61
2019-02-25T11:42:41.550Z,60.84
2019-02-25T11:43:43.346Z,60.33
2019-02-25T11:44:41.509Z,60.42
2019-02-25T11:45:41.500Z,60.33
2019-02-25T11:46:41.487Z,59.92
2019-02-25T11:47:41.490Z,60.02
2019-02-25T11:48:41.474Z,60.33
2019-02-25T11:49:41.464Z,59.50
2019-02-25T11:50:41.449Z,59.30
2019-02-25T11:51:41.449Z,60.33
2019-02-25T11:52:41.441Z,59.50
2019-02-25T11:53:41.414Z,60.02
2019-02-25T11:54:41.407Z,60.12
2019-02-25T11:55:41.395Z,60.22
2019-02-25T11:56:41.381Z,60.02
2019-02-25T11:57:41.379Z,60.53
2019-02-25T11:58:41.365Z,59.61
2019-02-25T11:59:41.342Z,60.53
2019-02-25T12:00:41.355Z,60.22
2019-02-25T12:01:41.316Z,60.33
2019-02-25T12:02:41.323Z,60.12
2019-02-25T12:03:41.288Z,59.81
2019-02-25T12:04:41.298Z,59.61
2019-02-25T12:05:41.292Z,59.71
2019-02-25T12:06:41.274Z,60.30
2019-02-25T12:07:41.296Z,59.99
2019-02-25T12:08:41.266Z,59.89
2019-02-25T12:09:41.234Z,60.60
2019-02-25T12:10:41.223Z,59.99
2019-02-25T12:11:41.211Z,60.10
2019-02-25T12:12:41.197Z,60.27
2019-02-25T12:13:41.196Z,60.47
2019-02-25T12:14:41.175Z,59.35
2019-02-25T12:15:41.169Z,59.35
2019-02-25T12:16:41.150Z,59.04
2019-02-25T12:17:41.146Z,59.42
2019-02-25T12:18:41.146Z,59.12
2019-02-25T12:19:41.117Z,59.94
2019-02-25T12:20:41.103Z,58.91
2019-02-25T12:21:42.362Z,59.53
2019-02-25T12:22:41.094Z,60.03
2019-02-25T12:23:41.107Z,59.53
2019-02-25T12:24:41.065Z,59.83
2019-02-25T12:25:41.046Z,59.83
2019-02-25T12:26:41.050Z,59.53
2019-02-25T12:27:41.047Z,59.53
2019-02-25T12:28:41.036Z,60.03
2019-02-25T12:29:41.070Z,60.14
2019-02-25T12:30:41.005Z,59.22
2019-02-25T12:31:40.990Z,59.42
2019-02-25T12:32:40.983Z,59.73
2019-02-25T12:33:40.968Z,59.91
2019-02-25T12:34:40.972Z,59.94
2019-02-25T12:35:40.944Z,60.03
2019-02-25T12:36:40.970Z,60.24
2019-02-25T12:37:40.924Z,60.31
2019-02-25T12:38:40.941Z,59.80
2019-02-25T12:39:40.937Z,59.80
2019-02-25T12:40:40.892Z,59.70
2019-02-25T12:41:40.892Z,60.35
2019-02-25T12:42:40.860Z,60.21
2019-02-25T12:43:40.851Z,59.30
2019-02-25T12:44:40.851Z,59.88
2019-02-25T12:45:40.833Z,58.98
2019-02-25T12:46:40.818Z,59.30
2019-02-25T12:47:40.843Z,59.16
2019-02-25T12:48:40.811Z,58.96
2019-02-25T12:49:40.802Z,58.55
2019-02-25T12:50:40.786Z,58.75
2019-02-25T12:51:40.777Z,58.75
2019-02-25T12:52:40.761Z,58.86